Terminal Aerodrome Forecast
Issued by NWS

Home | Current Version | Previous Version | Text Only | Print | Product List | Glossary On
Versions: 1 2 3 4 5 6 7 8 9 10 11 12 13 14
000
FTUS46 KMFR 231100 RRA
TAFRBG
TAF
KRBG 231149Z 2312/2412 35005KT P6SM VCSH SCT025 OVC035
     FM231300 VRB03KT 5SM -RA BR BKN020 OVC030
     FM232000 34008KT P6SM -SHRA BKN030 OVC050
     FM240100 33006KT P6SM SCT030 BKN050=

USA.gov is the U.S. government's official web portal to all federal, state and local government web resources and services.